createdAt,value
2023-03-19T00:00:02.078Z,54.28
2023-03-19T00:02:32.712Z,53.35
2023-03-19T00:05:03.079Z,53.40
2023-03-19T00:07:32.186Z,53.36
2023-03-19T00:10:02.467Z,53.14
2023-03-19T00:15:32.681Z,53.07
2023-03-19T00:18:09.196Z,52.74
2023-03-19T00:20:47.138Z,52.78
2023-03-19T00:23:33.306Z,52.67
2023-03-19T00:26:23.822Z,52.60
2023-03-19T00:38:05.187Z,52.54
2023-03-19T00:49:49.984Z,52.13
2023-03-19T00:55:42.515Z,52.22
2023-03-19T00:58:16.221Z,52.29
2023-03-19T01:00:55.819Z,52.03
2023-03-19T01:03:24.792Z,51.96
2023-03-19T01:06:00.042Z,52.12
2023-03-19T01:08:50.459Z,51.55
2023-03-19T01:11:32.457Z,51.78
2023-03-19T01:14:02.734Z,51.12
2023-03-19T01:16:33.051Z,51.22
2023-03-19T01:19:21.069Z,51.28
2023-03-19T01:22:01.103Z,51.87
2023-03-19T01:24:55.380Z,51.40
2023-03-19T01:27:38.479Z,51.73
2023-03-19T01:30:08.456Z,51.69
2023-03-19T01:32:46.451Z,51.47
2023-03-19T01:35:15.004Z,51.64
2023-03-19T01:37:48.679Z,52.01
2023-03-19T01:40:23.097Z,51.84
2023-03-19T01:42:58.970Z,51.90
2023-03-19T01:45:57.747Z,51.95
2023-03-19T01:48:59.519Z,51.72
2023-03-19T01:51:38.457Z,51.70
2023-03-19T02:03:48.756Z,52.18
2023-03-19T02:06:18.608Z,51.99
2023-03-19T02:08:48.832Z,51.88
2023-03-19T02:11:18.058Z,52.21
2023-03-19T02:13:47.486Z,52.41
2023-03-19T02:16:19.626Z,52.11
2023-03-19T02:18:50.208Z,51.88
2023-03-19T02:21:22.333Z,51.92
2023-03-19T02:24:01.785Z,51.86
2023-03-19T02:26:32.888Z,52.13
2023-03-19T02:29:02.316Z,52.03
2023-03-19T02:34:49.697Z,52.12
2023-03-19T02:37:22.612Z,52.32
2023-03-19T02:39:58.474Z,52.18
2023-03-19T02:42:32.233Z,52.02
2023-03-19T02:45:01.218Z,52.33
2023-03-19T02:47:29.811Z,52.21
2023-03-19T02:50:09.781Z,52.32
2023-03-19T02:52:38.816Z,52.40
2023-03-19T02:55:11.434Z,52.26
2023-03-19T02:57:45.820Z,52.41
2023-03-19T03:00:15.028Z,52.37
2023-03-19T03:02:43.810Z,52.71
2023-03-19T03:05:12.194Z,52.25
2023-03-19T03:07:43.719Z,52.38
2023-03-19T03:10:12.951Z,52.68
2023-03-19T03:12:46.657Z,52.56
2023-03-19T03:15:17.296Z,52.98
2023-03-19T03:17:47.227Z,52.70
2023-03-19T03:20:17.971Z,52.87
2023-03-19T03:22:52.187Z,52.99
2023-03-19T03:25:22.781Z,53.21
2023-03-19T03:30:38.799Z,53.47
2023-03-19T03:33:08.115Z,53.63
2023-03-19T03:35:39.410Z,53.54
2023-03-19T03:38:08.556Z,53.49
2023-03-19T03:40:37.014Z,53.34
2023-03-19T03:43:06.896Z,53.43
2023-03-19T03:45:37.321Z,53.63
2023-03-19T03:48:07.824Z,53.06
2023-03-19T03:50:36.810Z,53.51
2023-03-19T03:53:05.496Z,53.39
2023-03-19T03:55:33.918Z,53.58
2023-03-19T03:58:03.490Z,53.68
2023-03-19T04:00:38.553Z,53.27
2023-03-19T04:03:13.483Z,53.60
2023-03-19T04:05:58.477Z,53.47
2023-03-19T04:08:29.569Z,53.26
2023-03-19T04:10:58.495Z,53.63
2023-03-19T04:13:27.988Z,53.47
2023-03-19T04:16:01.166Z,53.69
2023-03-19T04:18:48.030Z,53.64
2023-03-19T04:24:16.922Z,53.51
2023-03-19T04:26:50.837Z,53.81
2023-03-19T04:29:21.035Z,53.92
2023-03-19T04:32:05.366Z,53.81
2023-03-19T04:37:35.596Z,54.22
2023-03-19T04:40:11.408Z,53.65
2023-03-19T04:42:56.643Z,53.93
2023-03-19T04:45:56.427Z,54.28
2023-03-19T04:52:21.589Z,53.77
2023-03-19T04:55:03.177Z,53.92
2023-03-19T04:57:33.976Z,53.88
2023-03-19T05:00:05.403Z,54.00
2023-03-19T05:02:34.395Z,53.72
2023-03-19T05:05:04.260Z,53.71
2023-03-19T05:07:34.443Z,53.60
2023-03-19T05:10:02.732Z,53.63
2023-03-19T05:12:30.978Z,53.63
2023-03-19T05:15:00.346Z,53.42
2023-03-19T05:17:29.075Z,53.40
2023-03-19T05:19:57.226Z,53.66
2023-03-19T05:22:25.379Z,53.49
2023-03-19T05:24:54.944Z,53.49
2023-03-19T05:27:23.949Z,53.23
2023-03-19T05:29:52.424Z,53.26
2023-03-19T05:32:21.477Z,53.55
2023-03-19T05:34:50.201Z,53.23
2023-03-19T05:37:18.486Z,53.30
2023-03-19T05:39:49.637Z,53.23
2023-03-19T05:42:21.119Z,53.14
2023-03-19T05:44:49.495Z,52.88
2023-03-19T05:47:20.668Z,53.47
2023-03-19T05:49:49.688Z,52.91
2023-03-19T05:52:18.266Z,53.06
2023-03-19T05:54:49.556Z,52.88
2023-03-19T05:57:21.067Z,53.16
2023-03-19T05:59:52.907Z,52.87
2023-03-19T06:02:25.736Z,53.08
2023-03-19T06:04:54.452Z,53.06
2023-03-19T06:07:29.498Z,52.97
2023-03-19T06:10:02.683Z,53.20
2023-03-19T06:15:29.142Z,52.46
2023-03-19T06:17:58.135Z,53.07
2023-03-19T06:20:28.310Z,53.03
2023-03-19T06:22:59.402Z,52.58
2023-03-19T06:25:30.046Z,52.67
2023-03-19T06:28:01.661Z,52.76
2023-03-19T06:30:30.884Z,52.60
2023-03-19T06:33:00.003Z,52.56
2023-03-19T06:35:28.232Z,52.98
2023-03-19T06:37:56.328Z,52.78
2023-03-19T06:40:24.838Z,52.98
2023-03-19T06:42:53.415Z,52.81
2023-03-19T06:45:24.050Z,52.92
2023-03-19T06:47:53.644Z,53.19
2023-03-19T06:50:22.018Z,53.05
2023-03-19T06:52:50.656Z,53.09
2023-03-19T06:55:20.851Z,53.09
2023-03-19T06:57:54.234Z,53.08
2023-03-19T07:00:24.663Z,53.28
2023-03-19T07:02:53.500Z,53.04
2023-03-19T07:05:22.056Z,53.28
2023-03-19T07:07:55.774Z,53.26
2023-03-19T07:10:24.850Z,53.12
2023-03-19T07:12:53.283Z,53.12
2023-03-19T07:15:21.722Z,53.21
2023-03-19T07:17:51.149Z,53.35
2023-03-19T07:20:19.434Z,53.20
2023-03-19T07:22:47.374Z,53.46
2023-03-19T07:25:16.513Z,53.53
2023-03-19T07:27:45.674Z,53.01
2023-03-19T07:30:15.310Z,53.19
2023-03-19T07:32:44.268Z,53.12
2023-03-19T07:35:14.500Z,52.92
2023-03-19T07:37:43.568Z,52.72
2023-03-19T07:40:13.465Z,52.66
2023-03-19T07:42:43.985Z,52.19
2023-03-19T07:45:13.711Z,51.96
2023-03-19T07:47:42.063Z,52.10
2023-03-19T07:50:11.211Z,51.57
2023-03-19T07:52:40.725Z,50.97
2023-03-19T07:55:09.450Z,51.06
2023-03-19T07:57:38.478Z,50.99
2023-03-19T08:00:08.789Z,50.78
2023-03-19T08:02:36.896Z,50.03
2023-03-19T08:05:09.983Z,49.86
2023-03-19T08:07:38.786Z,48.77
2023-03-19T08:10:10.185Z,48.46
2023-03-19T08:12:42.233Z,48.49
2023-03-19T08:15:12.409Z,48.06
2023-03-19T08:17:41.249Z,47.05
2023-03-19T08:20:12.653Z,46.24
2023-03-19T08:22:41.997Z,46.53
2023-03-19T08:25:12.150Z,46.61
2023-03-19T08:27:40.645Z,46.42
2023-03-19T08:30:11.202Z,46.26
2023-03-19T08:32:39.614Z,45.40
2023-03-19T08:35:08.743Z,45.17
2023-03-19T08:37:36.810Z,44.93
2023-03-19T08:40:05.965Z,44.95
2023-03-19T08:42:39.046Z,44.86
2023-03-19T08:45:08.830Z,45.09
2023-03-19T08:47:36.939Z,44.55
2023-03-19T08:50:07.209Z,44.86
2023-03-19T08:52:35.731Z,44.48
2023-03-19T08:55:03.931Z,43.89
2023-03-19T08:57:32.630Z,44.27
2023-03-19T09:00:10.867Z,43.99
2023-03-19T09:02:40.415Z,43.74
2023-03-19T09:05:09.303Z,43.49
2023-03-19T09:07:37.435Z,42.67
2023-03-19T09:10:07.463Z,42.77
2023-03-19T09:12:35.901Z,43.16
2023-03-19T09:15:08.395Z,42.78
2023-03-19T09:17:36.539Z,42.21
2023-03-19T09:20:06.454Z,41.92
2023-03-19T09:22:34.529Z,41.70
2023-03-19T09:25:02.756Z,42.38
2023-03-19T09:27:30.957Z,42.44
2023-03-19T09:29:59.062Z,42.17
2023-03-19T09:32:29.083Z,42.25
2023-03-19T09:34:57.633Z,42.06
2023-03-19T09:37:25.988Z,42.05
2023-03-19T09:39:54.025Z,41.78
2023-03-19T09:42:35.748Z,41.63
2023-03-19T09:45:04.018Z,41.78
2023-03-19T09:47:35.792Z,41.56
2023-03-19T09:50:08.525Z,41.36
2023-03-19T09:52:43.248Z,40.99
2023-03-19T09:55:29.715Z,41.39
2023-03-19T09:58:01.012Z,41.86
2023-03-19T10:00:31.556Z,41.55
2023-03-19T10:03:07.699Z,41.18
2023-03-19T10:05:46.918Z,40.68
2023-03-19T10:08:36.486Z,40.66
2023-03-19T10:11:19.773Z,41.40
2023-03-19T10:13:58.560Z,41.27
2023-03-19T10:16:28.516Z,40.89
2023-03-19T10:19:02.114Z,40.20
2023-03-19T10:21:36.645Z,40.08
2023-03-19T10:24:09.783Z,40.16
2023-03-19T10:26:38.020Z,40.32
2023-03-19T10:29:09.573Z,40.09
2023-03-19T10:31:48.526Z,40.62
2023-03-19T10:34:31.549Z,40.63
2023-03-19T10:37:02.183Z,40.68
2023-03-19T10:39:32.016Z,40.53
2023-03-19T10:42:10.897Z,39.39
2023-03-19T10:44:44.801Z,39.40
2023-03-19T10:47:14.732Z,38.63
2023-03-19T10:49:44.426Z,39.27
2023-03-19T10:52:23.184Z,38.41
2023-03-19T10:54:56.949Z,38.30
2023-03-19T10:57:29.048Z,38.59
2023-03-19T10:59:57.404Z,37.76
2023-03-19T11:02:31.236Z,37.28
2023-03-19T11:05:25.029Z,37.49
2023-03-19T11:07:58.168Z,37.95
2023-03-19T11:10:30.046Z,38.13
2023-03-19T11:13:01.340Z,37.79
2023-03-19T11:15:36.429Z,38.13
2023-03-19T11:18:17.467Z,38.17
2023-03-19T11:20:51.964Z,38.01
2023-03-19T11:23:21.506Z,38.14
2023-03-19T11:25:53.247Z,38.06
2023-03-19T11:28:26.804Z,38.16
2023-03-19T11:31:01.952Z,38.32
2023-03-19T11:33:56.005Z,38.14
2023-03-19T11:36:31.251Z,38.19
2023-03-19T11:39:18.354Z,38.18
2023-03-19T11:41:56.389Z,38.69
2023-03-19T11:44:31.938Z,38.63
2023-03-19T11:47:24.589Z,38.60
2023-03-19T11:50:19.629Z,38.15
2023-03-19T11:53:12.418Z,38.18
2023-03-19T11:55:45.483Z,37.71
2023-03-19T11:58:30.800Z,38.03
2023-03-19T12:01:02.209Z,38.26
2023-03-19T12:03:59.676Z,37.89
2023-03-19T12:06:37.806Z,37.16
2023-03-19T12:09:18.394Z,37.64
2023-03-19T12:11:53.669Z,38.36
2023-03-19T12:14:40.842Z,37.12
2023-03-19T12:17:26.341Z,37.05
2023-03-19T12:20:11.990Z,37.56
2023-03-19T12:22:54.766Z,37.26
2023-03-19T12:25:32.020Z,37.10
2023-03-19T12:28:11.594Z,36.52
2023-03-19T12:30:43.713Z,36.52
2023-03-19T12:33:32.676Z,36.63
2023-03-19T12:36:04.041Z,36.06
2023-03-19T12:38:39.147Z,36.10
2023-03-19T12:41:13.683Z,36.69
2023-03-19T12:43:51.908Z,36.61
2023-03-19T12:46:27.328Z,37.08
2023-03-19T12:49:00.867Z,36.44
2023-03-19T12:51:35.272Z,36.67
2023-03-19T12:54:08.246Z,36.98
2023-03-19T12:56:46.052Z,37.01
2023-03-19T12:59:42.573Z,36.78
2023-03-19T13:02:21.486Z,36.43
2023-03-19T13:04:55.435Z,36.34
2023-03-19T13:07:30.149Z,35.88
2023-03-19T13:10:05.225Z,36.06
2023-03-19T13:12:40.320Z,36.42
2023-03-19T13:15:14.557Z,35.74
2023-03-19T13:17:57.488Z,35.72
2023-03-19T13:20:35.297Z,35.90
2023-03-19T13:23:09.340Z,36.50
2023-03-19T13:25:43.162Z,35.35
2023-03-19T13:28:26.281Z,35.52
2023-03-19T13:31:06.761Z,35.40
2023-03-19T13:33:37.839Z,35.44
2023-03-19T13:36:09.751Z,35.96
2023-03-19T13:38:43.261Z,36.32
2023-03-19T13:41:52.216Z,35.83
2023-03-19T13:44:30.371Z,35.86
2023-03-19T13:47:02.885Z,36.10
2023-03-19T13:49:36.600Z,36.05
2023-03-19T13:52:50.301Z,35.62
2023-03-19T13:55:47.374Z,35.84
2023-03-19T13:58:49.330Z,36.26
2023-03-19T14:01:52.288Z,35.78
2023-03-19T14:04:25.114Z,35.91
2023-03-19T14:06:57.605Z,36.49
2023-03-19T14:09:37.694Z,35.85
2023-03-19T14:12:22.019Z,35.99
2023-03-19T14:14:54.583Z,36.63
2023-03-19T14:17:27.993Z,35.64
2023-03-19T14:19:56.544Z,37.25
2023-03-19T14:22:40.918Z,37.92
2023-03-19T14:25:22.789Z,38.48
2023-03-19T14:27:52.977Z,37.11
2023-03-19T14:30:31.153Z,35.56
2023-03-19T14:33:04.638Z,35.56
2023-03-19T14:35:38.009Z,34.79
2023-03-19T14:38:15.503Z,32.38
2023-03-19T14:40:50.904Z,31.85
2023-03-19T14:43:49.402Z,31.45
2023-03-19T14:46:24.947Z,32.33
2023-03-19T14:49:33.000Z,32.63
2023-03-19T14:52:06.332Z,33.12
2023-03-19T14:54:43.132Z,33.85
2023-03-19T14:57:20.048Z,34.55
2023-03-19T14:59:50.560Z,34.65
2023-03-19T15:02:33.041Z,33.79
2023-03-19T15:05:06.739Z,35.11
2023-03-19T15:07:39.422Z,35.33
2023-03-19T15:10:15.442Z,35.64
2023-03-19T15:13:04.504Z,36.00
2023-03-19T15:15:41.289Z,35.72
2023-03-19T15:18:13.285Z,36.52
2023-03-19T15:20:58.695Z,36.21
2023-03-19T15:23:30.191Z,36.60
2023-03-19T15:26:01.957Z,36.70
2023-03-19T15:28:32.331Z,36.76
2023-03-19T15:31:19.458Z,37.32
2023-03-19T15:33:53.653Z,37.62
2023-03-19T15:36:30.455Z,37.80
2023-03-19T15:39:02.368Z,37.96
2023-03-19T15:41:36.508Z,38.06
2023-03-19T15:44:11.046Z,38.30
2023-03-19T15:46:44.794Z,38.63
2023-03-19T15:49:18.691Z,38.96
2023-03-19T15:51:54.488Z,39.24
2023-03-19T15:54:23.908Z,39.47
2023-03-19T15:56:53.750Z,39.51
2023-03-19T15:59:46.005Z,39.80
2023-03-19T16:02:37.167Z,40.02
2023-03-19T16:08:01.343Z,40.53
2023-03-19T16:10:41.603Z,40.55
2023-03-19T16:13:32.921Z,40.76
2023-03-19T16:16:14.212Z,41.00
2023-03-19T16:18:46.072Z,40.80
2023-03-19T16:21:19.865Z,41.49
2023-03-19T16:23:56.059Z,41.59
2023-03-19T16:26:36.602Z,41.72
2023-03-19T16:29:11.126Z,41.94
2023-03-19T16:31:59.643Z,42.18
2023-03-19T16:34:36.752Z,42.41
2023-03-19T16:37:27.724Z,42.87
2023-03-19T16:40:26.712Z,42.96
2023-03-19T16:43:10.293Z,43.17
2023-03-19T16:45:39.331Z,43.90
2023-03-19T16:48:12.938Z,43.98
2023-03-19T16:50:51.513Z,44.10
2023-03-19T16:53:26.231Z,43.94
2023-03-19T16:56:00.875Z,44.13
2023-03-19T16:58:38.279Z,44.27
2023-03-19T17:01:29.867Z,44.29
2023-03-19T17:04:03.324Z,44.61
2023-03-19T17:06:38.746Z,45.12
2023-03-19T17:09:25.483Z,44.71
2023-03-19T17:22:23.563Z,45.70
2023-03-19T17:24:53.801Z,45.59
2023-03-19T17:27:22.523Z,45.53
2023-03-19T17:29:56.498Z,45.46
2023-03-19T17:32:27.017Z,45.64
2023-03-19T17:34:55.299Z,45.68
2023-03-19T17:37:23.769Z,45.89
2023-03-19T17:39:53.848Z,45.86
2023-03-19T17:42:25.324Z,45.78
2023-03-19T17:44:53.610Z,46.00
2023-03-19T17:47:23.453Z,46.22
2023-03-19T17:49:51.913Z,46.47
2023-03-19T17:52:23.944Z,46.68
2023-03-19T17:54:53.670Z,46.84
2023-03-19T17:57:21.752Z,47.05
2023-03-19T17:59:53.740Z,47.43
2023-03-19T18:02:28.476Z,47.13
2023-03-19T18:04:58.785Z,47.11
2023-03-19T18:07:27.717Z,46.92
2023-03-19T18:09:57.470Z,47.16
2023-03-19T18:12:26.347Z,46.72
2023-03-19T18:14:57.675Z,47.09
2023-03-19T18:17:27.774Z,47.26
2023-03-19T18:20:00.745Z,47.40
2023-03-19T18:22:29.498Z,46.90
2023-03-19T18:24:59.286Z,47.22
2023-03-19T18:27:28.286Z,47.71
2023-03-19T18:29:56.554Z,47.47
2023-03-19T18:32:29.151Z,47.40
2023-03-19T18:34:57.554Z,47.42
2023-03-19T18:37:25.793Z,47.59
2023-03-19T18:39:54.093Z,47.61
2023-03-19T18:42:23.901Z,47.73
2023-03-19T18:44:52.506Z,47.91
2023-03-19T18:47:21.036Z,47.54
2023-03-19T18:49:50.254Z,47.59
2023-03-19T18:52:19.827Z,47.53
2023-03-19T18:58:06.776Z,47.82
2023-03-19T19:00:51.827Z,47.59
2023-03-19T19:03:41.358Z,47.59
2023-03-19T19:06:10.610Z,47.87
2023-03-19T19:11:24.924Z,47.45
2023-03-19T19:13:59.937Z,47.67
2023-03-19T19:16:54.465Z,48.08
2023-03-19T19:19:28.356Z,48.07
2023-03-19T19:24:57.999Z,48.37
2023-03-19T19:27:31.460Z,48.26
2023-03-19T19:30:02.566Z,48.29
2023-03-19T19:32:33.395Z,48.25
2023-03-19T19:35:11.566Z,48.43
2023-03-19T19:37:42.692Z,48.34
2023-03-19T19:40:26.574Z,48.58
2023-03-19T19:42:57.361Z,48.50
2023-03-19T19:45:43.161Z,48.13
2023-03-19T19:48:18.531Z,48.43
2023-03-19T19:50:49.603Z,48.53
2023-03-19T19:53:20.872Z,48.59
2023-03-19T19:55:49.763Z,48.66
2023-03-19T19:58:23.999Z,48.60
2023-03-19T20:01:03.391Z,48.77
2023-03-19T20:03:34.685Z,48.60
2023-03-19T20:06:04.021Z,48.67
2023-03-19T20:08:33.252Z,48.73
2023-03-19T20:13:51.799Z,48.68
2023-03-19T20:16:42.157Z,49.08
2023-03-19T20:22:12.826Z,48.62
2023-03-19T20:24:42.324Z,48.84
2023-03-19T20:27:20.641Z,48.61
2023-03-19T20:32:58.322Z,49.14
2023-03-19T20:35:34.203Z,48.97
2023-03-19T20:38:09.995Z,49.09
2023-03-19T20:40:44.187Z,48.67
2023-03-19T20:43:26.838Z,49.04
2023-03-19T20:45:59.772Z,48.95
2023-03-19T20:48:31.243Z,49.02
2023-03-19T20:51:02.109Z,49.10
2023-03-19T20:53:31.585Z,49.05
2023-03-19T20:58:49.737Z,49.06
2023-03-19T21:01:19.018Z,48.90
2023-03-19T21:03:50.970Z,48.91
2023-03-19T21:06:52.128Z,48.56
2023-03-19T21:13:17.071Z,48.87
2023-03-19T21:16:12.549Z,48.95
2023-03-19T21:18:52.719Z,48.96
2023-03-19T21:21:31.366Z,48.92
2023-03-19T21:24:07.064Z,49.05
2023-03-19T21:26:40.107Z,49.18
2023-03-19T21:29:14.326Z,49.33
2023-03-19T21:31:43.322Z,49.21
2023-03-19T21:34:15.303Z,49.14
2023-03-19T21:36:46.037Z,49.14
2023-03-19T21:39:14.071Z,49.00
2023-03-19T21:41:44.158Z,49.17
2023-03-19T21:44:16.392Z,49.04
2023-03-19T21:46:48.037Z,49.12
2023-03-19T21:49:17.983Z,48.98
2023-03-19T21:51:48.428Z,48.86
2023-03-19T21:54:16.528Z,48.90
2023-03-19T21:56:46.001Z,48.97
2023-03-19T21:59:16.564Z,49.14
2023-03-19T22:01:44.935Z,49.10
2023-03-19T22:04:13.109Z,49.12
2023-03-19T22:06:41.802Z,49.10
2023-03-19T22:09:11.369Z,48.87
2023-03-19T22:11:41.711Z,48.89
2023-03-19T22:14:17.927Z,49.09
2023-03-19T22:16:46.767Z,49.13
2023-03-19T22:19:17.670Z,49.22
2023-03-19T22:21:47.543Z,49.10
2023-03-19T22:24:17.993Z,49.11
2023-03-19T22:26:49.411Z,49.17
2023-03-19T22:29:21.257Z,49.20
2023-03-19T22:31:50.000Z,49.35
2023-03-19T22:34:20.840Z,49.55
2023-03-19T22:36:49.834Z,49.78
2023-03-19T22:39:20.213Z,49.50
2023-03-19T22:41:50.442Z,49.64
2023-03-19T22:44:24.353Z,49.37
2023-03-19T22:46:53.106Z,49.82
2023-03-19T22:49:21.293Z,49.88
2023-03-19T22:51:49.608Z,50.14
2023-03-19T22:54:19.646Z,50.31
2023-03-19T22:56:48.214Z,49.97
2023-03-19T22:59:16.467Z,50.34
2023-03-19T23:01:46.402Z,50.31
2023-03-19T23:04:22.989Z,50.41
2023-03-19T23:06:52.348Z,50.76
2023-03-19T23:09:25.002Z,50.60
2023-03-19T23:11:54.033Z,50.67
2023-03-19T23:14:29.624Z,50.63
2023-03-19T23:17:00.528Z,50.86
2023-03-19T23:19:31.864Z,50.93
2023-03-19T23:22:02.802Z,50.87
2023-03-19T23:24:32.837Z,50.89
2023-03-19T23:27:03.171Z,50.87
2023-03-19T23:29:34.967Z,50.98
2023-03-19T23:32:04.521Z,51.21
2023-03-19T23:34:39.823Z,51.23
2023-03-19T23:37:13.932Z,50.91
2023-03-19T23:39:43.808Z,51.22
2023-03-19T23:42:23.572Z,51.52
2023-03-19T23:44:52.652Z,51.44
2023-03-19T23:47:21.149Z,51.80
2023-03-19T23:49:49.358Z,51.85
2023-03-19T23:52:17.750Z,51.84
2023-03-19T23:54:47.880Z,51.70
2023-03-19T23:57:17.358Z,51.92
2023-03-19T23:59:48.758Z,52.06
